Etusivu
METAR-TAF:

METAR-TAF

Lentoasemat :

Cuneo, Italia

Leveyspiiri: 44-32-47N, Pituuspiiri: 007-37-20E, korkeus merenpinnasta: 386 m

Tämänhetkinen sää

Tämä raportti tehtiin 9 tuntia ja 2 minuuttia sitten, kello 19.50 UTC
Tuuli 5 kn pohjoisesta/koillisesta
Lämpötila 6°C
Kosteus 56%
Ilmanpaine 1034 hPa
Näkyvyys: 8000 m
Hajonneita pilviä 3000 ft:n korkeudessa

METAR: LIMZ 231950Z 02005KT 8000 BKN030 06/M02 Q1034

Aika: 05:52 (04:52 UTC)

Sääennuste

Tämä raportti tehtiin 11 tuntia ja 52 minuuttia sitten, kello 17.00 UTC
Ennuste voimassa 23. päivästä klo 18 UTC - 24. päivään klo 18 UTC
Tuuli 5 kn eri suunnista
Näkyvyys: 8000 m
Hajonneita pilviä 1500 ft:n korkeudessa

TAF: LIMZ 231700Z 2318/2418 VRB05KT 8000 BKN015

Säähavainnot ja -ennusteet yli 4000 lentoasemalta (METAR- ja TAF-raportit).

Käytössä olevat sääasemat on merkitty karttaan keltaisilla ja punaisilla pisteillä.

Aseta hiiri pisteen päälle nähdäksesi sääaseman nimen.

Klikkaa sitten nähdäksesi säähavainnot ja -ennusteet.

Kartan vaihtaminen: klikkaa mustalla rastilla varustettuja vihreitä pisteitä, niin voit zoomata sisään; viivalla varustettua vihreää pistettä, niin voit zoomata ulos tai vihreitä nuolia, niin pääset viereisille kartoille.


METAR-TAF: